Time;durP1;ratioP1;P1;durP2;ratioP2;P2;SDS_P1;SDS_P2;PMS_P1;PMS_P2;Temp;Humidity;BMP_temperature;BMP_pressure;BME280_temperature;BME280_humidity;BME280_pressure;Samples;Min_cycle;Max_cycle;Signal;HPM_P1;HPM_P2
2021/12/11 00:01:57;;;;;;;16.80;12.70;;;;;;;-0.29;90.30;99510.91;5050099;28;20251;-76
2021/12/11 00:04:31;;;;;;;22.57;13.20;;;;;;;-0.22;90.33;99510.13;5049973;28;20724;-77
2021/12/11 00:07:02;;;;;;;14.43;12.57;;;;;;;-0.13;90.20;99537.56;5050294;28;20209;-76
2021/12/11 00:09:32;;;;;;;17.57;11.77;;;;;;;-0.12;89.41;99553.00;5049626;28;20577;-77
2021/12/11 00:12:06;;;;;;;11.30;10.30;;;;;;;-0.03;88.28;99583.84;5049598;28;20271;-77
2021/12/11 00:14:35;;;;;;;12.00;10.90;;;;;;;0.03;88.32;99605.28;5049699;28;20226;-77
2021/12/11 00:17:02;;;;;;;11.20;10.10;;;;;;;0.08;87.33;99632.72;5049856;28;20293;-77
2021/12/11 00:19:31;;;;;;;10.60;9.70;;;;;;;0.05;86.90;99660.03;5041670;28;20241;-77
2021/12/11 00:22:07;;;;;;;11.10;9.87;;;;;;;0.07;86.76;99677.16;5049415;28;20209;-76
2021/12/11 00:24:35;;;;;;;11.80;10.80;;;;;;;0.01;87.28;99665.97;5046259;28;20219;-76
2021/12/11 00:27:06;;;;;;;14.97;10.70;;;;;;;-0.07;87.81;99655.63;5039720;28;20237;-77
2021/12/11 00:29:34;;;;;;;23.90;11.57;;;;;;;-0.07;87.62;99642.81;5039084;28;20203;-77
2021/12/11 00:32:04;;;;;;;12.53;11.30;;;;;;;-0.09;88.14;99647.91;5039317;28;20221;-76
2021/12/11 00:34:31;;;;;;;13.57;12.17;;;;;;;-0.08;87.70;99654.78;5038609;28;20231;-76
2021/12/11 00:37:01;;;;;;;14.57;11.30;;;;;;;-0.04;87.71;99646.25;5038392;28;20258;-76
2021/12/11 00:39:29;;;;;;;12.27;10.97;;;;;;;-0.04;87.68;99653.97;5038212;28;20220;-75
2021/12/11 00:42:00;;;;;;;14.03;11.50;;;;;;;-0.03;87.45;99667.63;5037744;28;20848;-76
2021/12/11 00:44:38;;;;;;;35.63;12.17;;;;;;;-0.17;88.38;99661.50;5039716;28;20232;-76
2021/12/11 00:47:11;;;;;;;23.67;11.97;;;;;;;-0.33;88.45;99669.00;5039416;28;20205;-76
2021/12/11 00:49:45;;;;;;;25.83;12.13;;;;;;;-0.38;88.42;99662.09;5043631;28;20193;-76
2021/12/11 00:52:12;;;;;;;29.33;11.73;;;;;;;-0.44;89.24;99652.59;5040701;28;20197;-76
2021/12/11 00:54:41;;;;;;;11.73;10.67;;;;;;;-0.35;89.56;99639.06;5037938;28;20214;-76
2021/12/11 00:57:10;;;;;;;18.03;11.53;;;;;;;-0.29;89.24;99647.69;5039290;28;20630;-77
2021/12/11 00:59:38;;;;;;;12.33;10.97;;;;;;;-0.25;89.51;99656.28;5040081;28;20254;-77
2021/12/11 01:02:05;;;;;;;18.23;10.90;;;;;;;-0.25;88.92;99643.44;5065207;22;20230;-77
2021/12/11 01:04:41;;;;;;;14.83;11.30;;;;;;;-0.27;89.43;99647.69;5057811;28;20206;-79
2021/12/11 01:07:16;;;;;;;23.80;12.10;;;;;;;-0.35;88.88;99670.69;5061907;28;20205;-79
2021/12/11 01:09:48;;;;;;;14.40;11.30;;;;;;;-0.54;88.56;99678.97;5062667;28;20212;-78
2021/12/11 01:12:19;;;;;;;14.87;11.63;;;;;;;-0.44;89.21;99671.44;5058233;28;20229;-78
2021/12/11 01:14:51;;;;;;;12.77;11.47;;;;;;;-0.29;89.28;99667.34;5054294;28;20190;-78
2021/12/11 01:17:30;;;;;;;11.57;10.57;;;;;;;-0.22;88.94;99681.94;5054200;28;20213;-78
2021/12/11 01:20:02;;;;;;;12.23;11.10;;;;;;;-0.25;88.99;99698.16;5053730;28;20214;-78
2021/12/11 01:22:33;;;;;;;11.27;10.17;;;;;;;-0.38;88.48;99700.53;5053945;28;20226;-78
2021/12/11 01:25:04;;;;;;;12.57;11.27;;;;;;;-0.41;88.96;99707.34;5054412;28;20337;-79
2021/12/11 01:27:31;;;;;;;13.30;12.00;;;;;;;-0.35;88.21;99704.00;5054701;28;20189;-78
2021/12/11 01:30:00;;;;;;;13.63;10.97;;;;;;;-0.34;88.18;99710.84;5053196;28;20680;-78
2021/12/11 01:32:29;;;;;;;12.80;11.67;;;;;;;-0.34;88.20;99726.22;5048050;28;20245;-77
2021/12/11 01:34:57;;;;;;;12.17;10.93;;;;;;;-0.31;88.51;99725.44;5055150;28;20199;-77
2021/12/11 01:37:24;;;;;;;12.43;11.27;;;;;;;-0.19;88.12;99732.44;5053710;28;20259;-77
2021/12/11 01:39:52;;;;;;;12.23;11.13;;;;;;;-0.13;87.70;99753.03;5056504;28;20300;-78
2021/12/11 01:42:22;;;;;;;11.57;10.50;;;;;;;-0.22;87.52;99769.13;5059506;28;20222;-80
2021/12/11 01:44:50;;;;;;;12.10;10.90;;;;;;;-0.33;87.75;99760.44;5061163;28;20210;-80
2021/12/11 01:47:21;;;;;;;12.93;11.73;;;;;;;-0.25;87.76;99764.84;5061613;28;20228;-78
2021/12/11 01:49:57;;;;;;;12.40;11.30;;;;;;;-0.17;86.89;99787.16;5061760;28;20259;-79
2021/12/11 01:52:33;;;;;;;11.33;10.30;;;;;;;-0.22;87.21;99793.09;5061044;28;20283;-79
2021/12/11 01:55:00;;;;;;;12.67;11.43;;;;;;;-0.21;87.35;99801.66;5061046;28;20215;-80
2021/12/11 01:57:29;;;;;;;12.70;11.50;;;;;;;-0.30;87.41;99811.75;5042756;28;20622;-80
2021/12/11 02:00:00;;;;;;;12.67;11.53;;;;;;;-0.35;87.81;99801.44;5057801;28;20897;-79
2021/12/11 02:02:31;;;;;;;12.50;11.33;;;;;;;-0.36;87.90;99796.28;5055676;28;20653;-79
2021/12/11 02:04:59;;;;;;;12.10;11.07;;;;;;;-0.26;87.95;99795.56;5062644;28;20268;-79
2021/12/11 02:07:28;;;;;;;12.20;11.07;;;;;;;-0.17;87.47;99815.38;5062101;28;20205;-76
2021/12/11 02:09:58;;;;;;;12.20;11.20;;;;;;;-0.13;87.42;99825.69;5062983;28;20238;-80
2021/12/11 02:12:30;;;;;;;12.73;11.47;;;;;;;-0.15;87.57;99836.78;5064880;28;20235;-80
2021/12/11 02:15:01;;;;;;;12.53;11.37;;;;;;;-0.21;87.36;99830.72;5064715;28;20209;-79
2021/12/11 02:17:33;;;;;;;12.57;11.37;;;;;;;-0.33;88.34;99807.47;5062813;28;20209;-79
2021/12/11 02:20:06;;;;;;;13.10;11.53;;;;;;;-0.38;88.25;99808.22;5065589;28;20221;-79
2021/12/11 02:22:39;;;;;;;14.23;12.93;;;;;;;-0.30;88.30;99804.91;5059689;28;20210;-79
2021/12/11 02:25:11;;;;;;;12.43;11.33;;;;;;;-0.25;87.88;99828.94;5057777;28;20233;-79
2021/12/11 02:27:44;;;;;;;13.37;12.13;;;;;;;-0.27;87.70;99833.19;5058319;28;20211;-78
2021/12/11 02:30:20;;;;;;;15.77;14.27;;;;;;;-0.48;87.53;99843.09;5054417;28;20260;-79
2021/12/11 02:32:52;;;;;;;14.63;13.13;;;;;;;-0.36;88.06;99840.72;5053968;28;20204;-78
2021/12/11 02:35:23;;;;;;;13.60;12.40;;;;;;;-0.39;88.59;99833.00;5057674;28;20267;-79
2021/12/11 02:37:57;;;;;;;14.53;13.03;;;;;;;-0.54;88.78;99828.50;5057752;28;20205;-80
2021/12/11 02:40:29;;;;;;;13.00;11.73;;;;;;;-0.39;88.16;99827.88;5056881;28;20224;-79
2021/12/11 02:42:58;;;;;;;13.33;12.13;;;;;;;-0.35;88.36;99834.78;5057435;28;20205;-78
2021/12/11 02:45:30;;;;;;;25.00;13.57;;;;;;;-0.42;88.23;99831.28;5057521;28;20210;-79
2021/12/11 02:48:01;;;;;;;13.10;11.80;;;;;;;-0.32;88.89;99839.94;5062353;28;20205;-79
2021/12/11 02:50:35;;;;;;;14.03;12.57;;;;;;;-0.48;88.67;99830.28;5062935;28;20222;-78
2021/12/11 02:53:08;;;;;;;20.67;13.80;;;;;;;-0.50;89.02;99831.97;5061564;28;20209;-79
2021/12/11 02:55:38;;;;;;;40.07;13.37;;;;;;;-0.57;89.12;99832.72;5051534;28;20211;-78
2021/12/11 02:58:09;;;;;;;13.40;12.20;;;;;;;-0.54;89.29;99827.63;5041307;28;20210;-78
2021/12/11 03:00:39;;;;;;;32.83;13.80;;;;;;;-0.64;89.13;99822.34;5051100;28;20230;-78
2021/12/11 03:03:09;;;;;;;13.97;12.57;;;;;;;-0.61;89.58;99826.69;5054944;28;20206;-79
2021/12/11 03:05:45;;;;;;;14.17;12.77;;;;;;;-0.47;89.30;99830.31;5056684;28;20672;-78
2021/12/11 03:08:16;;;;;;;14.00;11.43;;;;;;;-0.45;89.00;99845.72;5056248;28;20304;-79
2021/12/11 03:10:45;;;;;;;30.60;11.10;;;;;;;-0.85;88.88;99863.88;5056170;28;20229;-78
2021/12/11 03:13:12;;;;;;;26.27;11.70;;;;;;;-1.16;89.13;99859.00;5055961;28;20255;-77
2021/12/11 03:15:39;;;;;;;12.17;10.97;;;;;;;-1.07;90.45;99831.00;5054888;28;20625;-79
2021/12/11 03:18:07;;;;;;;15.53;11.63;;;;;;;-1.20;90.93;99825.66;5055322;28;20755;-79
2021/12/11 03:20:37;;;;;;;13.30;12.00;;;;;;;-1.38;91.71;99803.97;5054747;28;20230;-78
2021/12/11 03:23:04;;;;;;;14.10;11.50;;;;;;;-1.46;92.00;99798.72;5054191;28;20578;-78
2021/12/11 03:25:32;;;;;;;50.67;13.37;;;;;;;-1.65;92.47;99787.25;5056166;28;20201;-79
2021/12/11 03:27:59;;;;;;;30.17;14.23;;;;;;;-1.40;92.92;99765.56;5062410;28;20210;-78
2021/12/11 03:30:29;;;;;;;44.87;13.57;;;;;;;-1.68;93.51;99759.91;5056788;28;20249;-80
2021/12/11 03:33:00;;;;;;;40.83;12.70;;;;;;;-1.52;93.33;99760.22;5051695;28;20206;-78
2021/12/11 03:35:27;;;;;;;25.07;12.87;;;;;;;-1.70;94.07;99745.38;5053883;28;20267;-78
2021/12/11 03:37:54;;;;;;;15.00;12.83;;;;;;;-1.44;94.14;99738.19;5054154;28;20211;-77
2021/12/11 03:40:21;;;;;;;120.27;18.13;;;;;;;-1.30;94.02;99738.44;5053945;28;20221;-79
2021/12/11 03:42:51;;;;;;;56.33;14.50;;;;;;;-1.38;93.97;99745.09;5053857;28;20738;-78
2021/12/11 03:45:22;;;;;;;119.00;13.87;;;;;;;-1.68;93.90;99754.78;5054613;28;20258;-79
2021/12/11 03:47:53;;;;;;;146.47;14.47;;;;;;;-1.88;94.49;99751.00;5053618;28;20251;-78
2021/12/11 03:50:22;;;;;;;99.93;16.20;;;;;;;-1.90;95.47;99727.06;5053395;28;20201;-78
2021/12/11 03:52:53;;;;;;;36.03;13.70;;;;;;;-1.71;95.73;99708.66;5052908;28;20280;-78
2021/12/11 03:55:25;;;;;;;101.37;15.13;;;;;;;-1.65;95.70;99705.38;5050279;28;20694;-79
2021/12/11 03:57:57;;;;;;;69.80;13.93;;;;;;;-1.47;95.91;99705.69;5034193;28;20660;-78
2021/12/11 04:00:26;;;;;;;20.20;12.73;;;;;;;-1.37;95.59;99714.41;5045817;28;20619;-78
2021/12/11 04:02:59;;;;;;;38.33;13.63;;;;;;;-1.23;95.14;99725.75;5050058;28;20628;-78
2021/12/11 04:05:26;;;;;;;15.53;13.23;;;;;;;-1.12;94.57;99748.13;5053260;28;20231;-79
2021/12/11 04:07:53;;;;;;;15.00;12.77;;;;;;;-1.00;93.81;99769.66;5053239;28;20243;-80
2021/12/11 04:10:21;;;;;;;24.97;12.77;;;;;;;-0.94;93.31;99788.53;5053561;28;20201;-78
2021/12/11 04:12:48;;;;;;;13.43;12.20;;;;;;;-0.90;93.17;99808.25;5052941;28;20202;-78
2021/12/11 04:15:17;;;;;;;13.20;12.00;;;;;;;-0.77;92.78;99827.25;5053063;28;20223;-77
2021/12/11 04:17:44;;;;;;;52.07;11.93;;;;;;;-0.90;91.61;99855.22;5057432;28;20235;-79
2021/12/11 04:20:13;;;;;;;14.47;11.17;;;;;;;-0.81;91.24;99881.00;5052773;28;20252;-78
2021/12/11 04:22:40;;;;;;;12.73;11.43;;;;;;;-0.73;91.52;99891.41;5052563;28;20296;-78
2021/12/11 04:25:09;;;;;;;16.50;11.73;;;;;;;-0.81;90.86;99909.19;5053062;28;20621;-78
2021/12/11 04:27:36;;;;;;;47.87;12.87;;;;;;;-0.84;90.49;99919.38;5053278;28;20264;-78
2021/12/11 04:30:05;;;;;;;13.10;11.80;;;;;;;-0.89;90.74;99927.81;5050470;28;20255;-79
2021/12/11 04:32:34;;;;;;;32.03;11.53;;;;;;;-0.90;90.53;99934.63;5046702;28;20198;-79
2021/12/11 04:35:01;;;;;;;12.77;11.47;;;;;;;-0.87;90.63;99933.84;5052666;28;20216;-78
2021/12/11 04:37:29;;;;;;;12.60;11.30;;;;;;;-0.80;90.70;99935.69;5052868;28;20206;-78
2021/12/11 04:40:01;;;;;;;11.93;10.83;;;;;;;-0.74;90.21;99940.91;5052813;28;20328;-78
2021/12/11 04:42:39;;;;;;;12.60;11.43;;;;;;;-0.75;89.92;99948.56;5052193;28;20703;-78
2021/12/11 04:45:07;;;;;;;12.20;11.00;;;;;;;-0.82;90.15;99958.69;5052647;28;20216;-77
2021/12/11 04:47:41;;;;;;;38.40;12.70;;;;;;;-0.75;89.83;99962.25;5052526;28;20609;-79
2021/12/11 04:50:20;;;;;;;12.30;11.07;;;;;;;-1.11;90.20;99967.50;5052639;28;20202;-79
2021/12/11 04:52:54;;;;;;;13.20;11.80;;;;;;;-1.03;90.88;99950.59;5052160;28;20201;-79
2021/12/11 04:55:36;;;;;;;13.07;11.87;;;;;;;-0.92;91.06;99944.00;5048806;28;20205;-79
2021/12/11 04:58:27;;;;;;;38.50;12.03;;;;;;;-0.91;91.06;99939.72;5032829;28;20218;-79
2021/12/11 05:01:09;;;;;;;20.43;12.73;;;;;;;-0.86;90.83;99954.34;5040865;28;20236;-78
2021/12/11 05:04:13;;;;;;;40.03;12.37;;;;;;;-1.22;91.26;99957.06;5052275;28;20594;-78
2021/12/11 05:06:49;;;;;;;60.67;13.07;;;;;;;-1.41;92.08;99938.75;5051926;28;20205;-79
2021/12/11 05:12:11;;;;;;;18.33;11.33;;;;;;;-1.77;93.60;99897.00;5051075;28;20229;-77
2021/12/11 05:14:39;;;;;;;49.97;14.67;;;;;;;-1.87;94.73;99875.47;5051651;28;20742;-78
2021/12/11 05:17:07;;;;;;;16.40;12.97;;;;;;;-1.94;95.54;99848.03;5051740;28;20205;-78
2021/12/11 05:19:35;;;;;;;19.97;13.47;;;;;;;-2.14;95.94;99830.56;5051657;28;20696;-78
2021/12/11 05:22:04;;;;;;;15.73;14.00;;;;;;;-1.99;96.62;99822.34;5055082;28;20229;-79
2021/12/11 05:24:30;;;;;;;14.50;13.00;;;;;;;-1.81;96.54;99821.88;5056989;28;20645;-79
2021/12/11 05:26:57;;;;;;;16.37;12.13;;;;;;;-1.75;96.02;99826.28;5056812;28;20206;-77
2021/12/11 05:29:23;;;;;;;14.33;12.53;;;;;;;-1.78;95.79;99838.97;5054138;28;20573;-78
2021/12/11 05:31:50;;;;;;;13.93;12.53;;;;;;;-1.91;95.78;99855.78;5044824;28;20236;-78
2021/12/11 05:34:17;;;;;;;16.90;12.87;;;;;;;-2.13;96.50;99854.44;5057849;28;20202;-78
2021/12/11 05:36:45;;;;;;;15.90;13.97;;;;;;;-2.16;96.62;99845.00;5056056;28;20563;-77
2021/12/11 05:39:15;;;;;;;15.13;13.27;;;;;;;-2.31;97.52;99831.88;5057047;28;20208;-77
2021/12/11 05:41:43;;;;;;;16.23;12.87;;;;;;;-2.20;97.79;99822.72;5057485;28;20233;-80
2021/12/11 05:44:11;;;;;;;16.00;14.07;;;;;;;-2.25;98.07;99821.78;5058136;28;20227;-78
2021/12/11 05:46:38;;;;;;;13.80;12.50;;;;;;;-2.14;97.97;99817.78;5059261;28;20206;-78
2021/12/11 05:49:06;;;;;;;15.20;13.67;;;;;;;-2.06;98.20;99811.16;5058270;28;20198;-79
2021/12/11 05:51:38;;;;;;;14.07;12.77;;;;;;;-2.07;97.70;99824.75;5058658;28;20225;-77
2021/12/11 05:54:08;;;;;;;14.20;12.70;;;;;;;-2.03;97.67;99829.09;5058564;28;20259;-79
2021/12/11 05:56:37;;;;;;;12.83;11.67;;;;;;;-2.06;97.68;99844.38;5043449;28;20888;-78
2021/12/11 05:59:05;;;;;;;12.63;11.37;;;;;;;-2.03;97.76;99847.00;5044080;28;20209;-80
2021/12/11 06:01:36;;;;;;;13.73;12.33;;;;;;;-1.92;97.81;99847.25;5048624;28;20248;-79
2021/12/11 06:04:06;;;;;;;12.77;11.47;;;;;;;-1.90;97.73;99860.94;5056989;28;20202;-77
2021/12/11 06:06:33;;;;;;;11.47;10.43;;;;;;;-1.89;97.20;99865.19;5057666;28;20209;-78
2021/12/11 06:09:00;;;;;;;12.83;11.10;;;;;;;-1.68;97.42;99861.41;5057983;28;20737;-79
2021/12/11 06:11:27;;;;;;;11.33;10.23;;;;;;;-1.49;96.97;99878.84;5058869;28;20229;-78
2021/12/11 06:13:54;;;;;;;11.90;10.80;;;;;;;-1.29;96.88;99886.94;5059451;28;20210;-78
2021/12/11 06:16:20;;;;;;;11.90;10.70;;;;;;;-1.15;96.06;99906.81;5059589;28;20746;-79
2021/12/11 06:18:47;;;;;;;10.33;9.33;;;;;;;-1.12;95.11;99929.94;5059974;28;20228;-79
2021/12/11 06:21:14;;;;;;;11.00;10.00;;;;;;;-1.32;94.26;99966.22;5059106;28;20700;-79
2021/12/11 06:23:41;;;;;;;11.10;10.10;;;;;;;-1.34;94.70;99974.72;5058056;28;20212;-79
2021/12/11 06:26:08;;;;;;;13.43;10.80;;;;;;;-1.37;94.26;99983.19;5057844;28;20197;-78
2021/12/11 06:28:36;;;;;;;12.10;11.00;;;;;;;-1.52;94.48;99993.97;5057799;28;20210;-78
2021/12/11 06:31:03;;;;;;;11.90;10.80;;;;;;;-1.62;94.92;99985.19;5047684;28;20214;-78
2021/12/11 06:33:31;;;;;;;12.37;11.23;;;;;;;-1.44;95.17;99973.66;5056468;28;20216;-78
2021/12/11 06:36:01;;;;;;;12.57;11.37;;;;;;;-1.40;94.91;99983.97;5057931;28;20231;-79
2021/12/11 06:38:32;;;;;;;11.93;10.67;;;;;;;-1.49;94.54;100003.38;5057809;28;20210;-78
2021/12/11 06:40:59;;;;;;;13.20;11.80;;;;;;;-1.63;94.99;100010.75;5056457;28;20229;-79
2021/12/11 06:43:26;;;;;;;12.70;11.43;;;;;;;-1.78;95.40;100008.72;5055338;28;20255;-78
2021/12/11 06:45:54;;;;;;;13.33;12.10;;;;;;;-1.55;95.78;100000.69;5055955;28;20700;-78
2021/12/11 06:48:20;;;;;;;11.87;10.77;;;;;;;-1.63;95.39;100003.94;5055376;28;20209;-78
2021/12/11 06:50:48;;;;;;;12.53;11.43;;;;;;;-1.51;95.51;100016.16;5057441;28;20893;-79
2021/12/11 06:53:21;;;;;;;12.20;11.00;;;;;;;-1.68;95.23;100026.00;5056406;28;20248;-78
2021/12/11 06:55:47;;;;;;;12.20;11.00;;;;;;;-1.59;95.32;100017.66;5049582;28;20198;-78
2021/12/11 06:58:13;;;;;;;12.50;11.37;;;;;;;-1.66;95.73;100009.00;5036370;28;20613;-78
2021/12/11 07:00:40;;;;;;;12.13;10.93;;;;;;;-1.46;96.04;100003.47;5068813;22;20248;-79
2021/12/11 07:03:08;;;;;;;10.97;10.00;;;;;;;-1.35;95.72;99999.44;5005748;28;20262;-77
2021/12/11 07:05:36;;;;;;;12.37;11.20;;;;;;;-1.23;95.70;100009.09;4994399;28;20270;-76
2021/12/11 07:08:05;;;;;;;11.20;10.20;;;;;;;-1.10;95.50;100015.34;5006437;28;20211;-76
2021/12/11 07:10:31;;;;;;;10.53;9.73;;;;;;;-0.96;95.23;100026.75;5013996;28;20621;-77
2021/12/11 07:12:58;;;;;;;10.93;9.97;;;;;;;-0.83;94.87;100049.22;5013623;28;20210;-77
2021/12/11 07:15:24;;;;;;;10.53;9.53;;;;;;;-0.69;94.22;100069.16;5013713;28;20259;-76
2021/12/11 07:17:51;;;;;;;10.27;9.27;;;;;;;-0.58;94.01;100098.41;5013856;28;20871;-77
2021/12/11 07:20:19;;;;;;;10.50;9.60;;;;;;;-0.57;93.11;100115.53;5001286;28;20258;-77
2021/12/11 07:22:46;;;;;;;12.70;9.80;;;;;;;-0.47;93.13;100134.53;4993748;28;20671;-77
2021/12/11 07:25:18;;;;;;;11.13;10.07;;;;;;;-0.43;93.08;100147.44;4994125;28;20677;-76
2021/12/11 07:27:45;;;;;;;10.53;9.63;;;;;;;-0.42;92.53;100159.44;4993991;28;20702;-76
2021/12/11 07:30:13;;;;;;;10.53;9.53;;;;;;;-0.35;92.57;100172.41;4993865;28;20628;-77
2021/12/11 07:32:39;;;;;;;10.67;9.67;;;;;;;-0.39;92.21;100184.28;4993615;28;20646;-76
2021/12/11 07:35:07;;;;;;;12.03;10.97;;;;;;;-0.32;92.01;100198.09;4994087;28;20285;-76
2021/12/11 07:37:35;;;;;;;9.97;9.07;;;;;;;-0.29;92.00;100201.59;4994192;28;20686;-79
2021/12/11 07:40:01;;;;;;;9.83;8.87;;;;;;;-0.24;92.04;100197.44;4994828;28;20753;-77
2021/12/11 07:42:28;;;;;;;10.13;9.23;;;;;;;-0.22;92.19;100211.16;4993271;28;20661;-77
2021/12/11 07:44:54;;;;;;;19.80;17.93;;;;;;;-0.14;91.92;100208.75;4993667;28;20834;-76
2021/12/11 07:47:20;;;;;;;13.00;11.93;;;;;;;-0.11;91.35;100225.91;4993957;28;20204;-76
2021/12/11 07:49:47;;;;;;;9.90;9.10;;;;;;;-0.13;91.34;100232.69;4993668;28;20212;-76
2021/12/11 07:52:13;;;;;;;10.60;9.63;;;;;;;-0.14;91.71;100246.34;4993175;28;20224;-76
2021/12/11 07:54:41;;;;;;;11.07;9.97;;;;;;;-0.09;91.45;100252.44;4993264;28;20686;-76
2021/12/11 07:57:07;;;;;;;10.77;9.63;;;;;;;-0.06;91.60;100252.50;4993461;28;20211;-76
2021/12/11 07:59:33;;;;;;;10.57;9.60;;;;;;;-0.04;91.69;100254.28;4992963;28;20211;-76
2021/12/11 08:02:00;;;;;;;11.70;10.70;;;;;;;-0.04;91.16;100253.41;4987551;28;20239;-76
2021/12/11 08:04:27;;;;;;;11.77;10.73;;;;;;;0.04;90.94;100258.69;4992865;28;20906;-76
2021/12/11 08:06:53;;;;;;;11.87;10.57;;;;;;;0.02;91.90;100257.78;4992567;28;20212;-76
2021/12/11 08:09:22;;;;;;;11.23;10.23;;;;;;;0.09;91.78;100251.97;4992868;28;20203;-76
2021/12/11 08:11:50;;;;;;;10.07;9.17;;;;;;;0.13;91.55;100252.03;4992285;28;20776;-76
2021/12/11 08:14:18;;;;;;;12.87;10.63;;;;;;;0.01;92.07;100259.50;4992925;28;20253;-76
2021/12/11 08:16:47;;;;;;;10.80;9.90;;;;;;;0.01;91.91;100248.38;4992713;28;20192;-77
2021/12/11 08:19:16;;;;;;;10.87;9.83;;;;;;;-0.07;92.60;100254.19;4990311;28;20249;-77
2021/12/11 08:21:42;;;;;;;10.60;9.60;;;;;;;-0.10;92.46;100243.00;4992033;28;20694;-77
2021/12/11 08:24:09;;;;;;;11.70;10.33;;;;;;;-0.21;92.60;100243.66;4994340;28;20199;-77
2021/12/11 08:26:37;;;;;;;11.53;10.33;;;;;;;-0.22;92.49;100249.63;4994173;28;20748;-77
2021/12/11 08:29:08;;;;;;;12.53;11.23;;;;;;;-0.29;93.02;100242.63;4995878;28;20203;-78
2021/12/11 08:31:34;;;;;;;12.47;11.17;;;;;;;-0.26;92.96;100254.63;4990810;28;20216;-77
2021/12/11 08:34:02;;;;;;;10.90;9.90;;;;;;;-0.26;92.86;100254.63;4992597;28;20200;-77
2021/12/11 08:36:28;;;;;;;12.23;10.73;;;;;;;-0.25;92.83;100269.22;4993041;28;20257;-77
2021/12/11 08:38:55;;;;;;;14.93;11.77;;;;;;;-0.27;92.81;100268.31;4994401;28;20737;-79
2021/12/11 08:41:24;;;;;;;11.03;10.10;;;;;;;-0.22;92.77;100279.53;5003042;28;20759;-77
2021/12/11 08:43:57;;;;;;;13.03;11.60;;;;;;;-0.17;92.13;100287.34;5003152;28;20210;-78
2021/12/11 08:46:27;;;;;;;12.27;10.97;;;;;;;-0.21;92.21;100294.94;5002515;28;20200;-77
2021/12/11 08:48:56;;;;;;;12.10;10.80;;;;;;;-0.23;92.95;100280.38;4999376;28;20214;-77
2021/12/11 08:51:26;;;;;;;12.40;11.20;;;;;;;-0.18;92.67;100276.19;4999296;28;20223;-77
2021/12/11 08:53:53;;;;;;;13.90;11.47;;;;;;;-0.10;93.11;100294.31;4996600;28;20588;-76
2021/12/11 08:56:20;;;;;;;20.37;15.77;;;;;;;-0.08;92.18;100318.31;4993311;28;20199;-77
2021/12/11 08:58:49;;;;;;;21.97;17.07;;;;;;;-0.06;91.98;100330.34;4993226;28;20246;-78
2021/12/11 09:01:24;;;;;;;12.97;11.67;;;;;;;-0.07;91.38;100351.69;4991043;28;20716;-77
2021/12/11 09:03:56;;;;;;;14.93;10.97;;;;;;;0.01;91.30;100368.97;4994078;28;20669;-78
2021/12/11 09:06:28;;;;;;;11.60;10.47;;;;;;;-0.06;91.14;100375.66;4994785;28;20192;-78
2021/12/11 09:08:59;;;;;;;16.43;13.97;;;;;;;0.02;90.86;100383.53;4992082;28;20204;-77
2021/12/11 09:11:29;;;;;;;17.33;12.70;;;;;;;0.04;91.35;100393.00;4989729;28;20271;-77
2021/12/11 09:14:00;;;;;;;13.27;12.10;;;;;;;0.04;91.41;100394.69;4969270;28;20208;-78
2021/12/11 09:16:31;;;;;;;13.33;11.93;;;;;;;0.24;92.72;100352.38;4967861;28;20205;-77
2021/12/11 09:19:05;;;;;;;14.93;13.40;;;;;;;0.68;96.69;100234.28;4969348;28;20227;-77
2021/12/11 09:21:36;;;;;;;13.90;12.50;;;;;;;0.70;96.73;100206.03;4967434;28;21021;-77
2021/12/11 09:24:09;;;;;;;15.70;14.20;;;;;;;1.20;98.56;100162.28;4969507;28;20255;-78
2021/12/11 09:26:39;;;;;;;14.03;12.60;;;;;;;1.13;96.71;100188.72;4967761;28;20581;-76
2021/12/11 09:29:12;;;;;;;15.70;14.00;;;;;;;1.42;97.36;100190.88;4967092;28;20216;-78
2021/12/11 09:31:42;;;;;;;15.77;14.07;;;;;;;1.32;96.20;100247.31;4968167;28;20223;-77
2021/12/11 09:34:13;;;;;;;13.97;12.53;;;;;;;1.32;94.39;100292.75;4966150;28;20214;-76
2021/12/11 09:36:43;;;;;;;13.53;12.33;;;;;;;1.09;91.80;100357.50;4968228;28;20259;-78
2021/12/11 09:39:12;;;;;;;16.10;11.60;;;;;;;1.12;92.22;100374.66;4966053;28;20236;-77
2021/12/11 09:41:39;;;;;;;13.83;12.53;;;;;;;1.02;92.23;100373.63;4966917;28;20314;-76
2021/12/11 09:44:10;;;;;;;13.43;12.13;;;;;;;0.72;91.50;100403.03;4966366;28;20271;-77
2021/12/11 09:46:41;;;;;;;14.63;13.33;;;;;;;0.36;92.10;100404.00;4967135;28;20212;-77
2021/12/11 09:49:13;;;;;;;21.00;13.37;;;;;;;0.11;93.42;100371.78;4967676;28;20266;-77
2021/12/11 09:51:44;;;;;;;20.30;15.47;;;;;;;0.05;93.86;100351.09;4966652;28;20224;-77
2021/12/11 09:54:15;;;;;;;17.90;14.67;;;;;;;-0.07;95.24;100318.34;4973239;28;20715;-77
2021/12/11 09:56:46;;;;;;;21.60;15.50;;;;;;;-0.12;95.88;100307.13;4970487;28;20243;-77
2021/12/11 09:59:17;;;;;;;24.67;18.40;;;;;;;-0.13;96.27;100282.28;4973273;28;20206;-76
2021/12/11 10:01:47;;;;;;;22.20;18.67;;;;;;;-0.12;97.19;100257.50;4968924;28;20236;-76
2021/12/11 10:04:19;;;;;;;21.13;18.97;;;;;;;-0.12;97.00;100243.00;4975441;28;20719;-76
2021/12/11 10:07:13;;;;;;;30.23;22.63;;;;;;;-0.13;97.11;100245.53;4967027;28;20214;-74
2021/12/11 10:09:41;;;;;;;23.47;19.30;;;;;;;-0.18;97.76;100230.00;4970495;28;20231;-75
2021/12/11 10:12:10;;;;;;;29.10;21.50;;;;;;;-0.17;98.35;100220.66;4966564;28;20231;-75
2021/12/11 10:14:41;;;;;;;35.83;24.83;;;;;;;-0.09;98.70;100229.38;4965828;28;20210;-76
2021/12/11 10:17:12;;;;;;;27.07;19.63;;;;;;;-0.15;99.29;100219.84;4965345;28;20265;-76
2021/12/11 10:19:40;;;;;;;26.60;18.70;;;;;;;-0.16;99.28;100212.09;4965167;28;20220;-76
2021/12/11 10:22:16;;;;;;;28.43;20.30;;;;;;;-0.15;99.25;100208.72;4973011;28;20239;-76
2021/12/11 10:24:45;;;;;;;24.50;18.33;;;;;;;-0.16;99.72;100206.97;4970337;28;20648;-76
2021/12/11 10:27:15;;;;;;;37.27;27.17;;;;;;;-0.12;99.61;100196.81;4978196;28;20212;-76
2021/12/11 10:29:45;;;;;;;26.77;22.30;;;;;;;-0.12;100.00;100199.38;4979717;28;20215;-76
2021/12/11 10:32:16;;;;;;;33.03;26.47;;;;;;;-0.09;100.00;100196.88;4977670;28;20908;-77
2021/12/11 10:34:45;;;;;;;34.20;21.93;;;;;;;-0.01;100.00;100203.00;4978094;28;20211;-77
2021/12/11 10:37:17;;;;;;;23.10;18.90;;;;;;;-0.02;100.00;100198.72;4977438;28;20575;-77
2021/12/11 10:39:49;;;;;;;28.10;20.47;;;;;;;0.01;100.00;100200.47;4978819;28;21037;-78
2021/12/11 10:42:16;;;;;;;23.97;20.70;;;;;;;0.04;100.00;100192.88;4977420;28;21195;-79
2021/12/11 10:44:46;;;;;;;30.00;20.73;;;;;;;0.12;100.00;100196.44;4981222;28;20830;-77
2021/12/11 10:47:18;;;;;;;24.17;18.90;;;;;;;0.14;100.00;100201.56;4978589;28;20961;-77
2021/12/11 10:49:44;;;;;;;30.70;19.80;;;;;;;0.21;100.00;100216.28;4982134;28;20212;-77
2021/12/11 10:52:14;;;;;;;23.63;19.63;;;;;;;0.26;100.00;100242.91;4974739;28;20742;-77
2021/12/11 10:54:41;;;;;;;25.57;19.77;;;;;;;0.33;99.89;100259.28;4975489;28;20205;-77
2021/12/11 10:57:08;;;;;;;19.70;15.73;;;;;;;0.36;98.60;100272.19;4975432;28;20212;-77
2021/12/11 10:59:39;;;;;;;31.20;25.47;;;;;;;0.37;98.70;100287.59;4975532;28;20880;-77
2021/12/11 11:02:10;;;;;;;53.80;38.80;;;;;;;0.39;98.34;100292.78;4976898;28;20263;-77
2021/12/11 11:04:39;;;;;;;30.47;22.23;;;;;;;0.43;98.62;100307.41;4977870;28;20212;-78
2021/12/11 11:07:07;;;;;;;31.50;28.33;;;;;;;0.48;97.93;100328.06;4978173;28;20231;-77
2021/12/11 11:09:34;;;;;;;24.03;21.63;;;;;;;0.48;97.57;100328.91;4977791;28;20996;-77
2021/12/11 11:12:05;;;;;;;20.20;18.03;;;;;;;0.52;97.57;100325.56;4978419;28;20219;-76
2021/12/11 11:14:32;;;;;;;26.10;19.53;;;;;;;0.51;97.95;100338.38;4979274;28;20262;-78
2021/12/11 11:17:03;;;;;;;22.10;16.67;;;;;;;0.51;98.40;100325.53;4982381;28;20206;-79
2021/12/11 11:19:34;;;;;;;61.50;36.50;;;;;;;0.56;97.66;100353.03;4982497;28;20209;-79
2021/12/11 11:22:05;;;;;;;74.57;40.80;;;;;;;0.67;97.07;100373.78;4985563;28;20246;-78
2021/12/11 11:24:35;;;;;;;186.60;89.23;;;;;;;0.77;95.81;100395.41;4982764;28;21003;-79
2021/12/11 11:27:03;;;;;;;28.03;22.87;;;;;;;0.79;94.88;100416.84;4987465;28;20238;-79
2021/12/11 11:29:31;;;;;;;15.67;14.17;;;;;;;0.75;94.56;100458.72;4982956;28;20208;-79
2021/12/11 11:32:00;;;;;;;26.37;20.57;;;;;;;0.79;94.73;100468.22;4984869;28;20286;-79